Time;durP1;ratioP1;P1;durP2;ratioP2;P2;SDS_P1;SDS_P2;PMS_P1;PMS_P2;Temp;Humidity;BMP_temperature;BMP_pressure;BME280_temperature;BME280_humidity;BME280_pressure;Samples;Min_cycle;Max_cycle;Signal;HPM_P1;HPM_P2
2022/12/25 00:00:01;;;;;;;7.47;2.90;;;11.00;99.90;;;;;;5074284;28;20669;-59
2022/12/25 00:02:29;;;;;;;4.63;2.63;;;10.90;99.90;;;;;;5075055;28;20205;-56
2022/12/25 00:04:56;;;;;;;3.67;2.60;;;10.80;99.90;;;;;;5074922;28;20215;-57
2022/12/25 00:07:24;;;;;;;5.67;3.00;;;10.80;99.90;;;;;;5074984;28;20286;-56
2022/12/25 00:09:51;;;;;;;5.63;3.13;;;10.80;99.90;;;;;;5075251;28;20205;-56
2022/12/25 00:12:18;;;;;;;9.30;3.50;;;10.70;99.90;;;;;;5074985;28;20235;-57
2022/12/25 00:14:45;;;;;;;4.83;3.10;;;10.80;99.90;;;;;;5074808;28;20209;-56
2022/12/25 00:17:11;;;;;;;7.73;3.13;;;10.80;99.90;;;;;;5074584;28;20296;-56
2022/12/25 00:19:38;;;;;;;6.10;2.90;;;10.90;99.90;;;;;;5074927;28;20201;-56
2022/12/25 00:22:05;;;;;;;5.53;2.93;;;10.90;99.90;;;;;;5074390;28;20647;-57
2022/12/25 00:24:33;;;;;;;6.77;2.83;;;11.00;99.90;;;;;;5074688;28;20718;-57
2022/12/25 00:27:00;;;;;;;7.30;3.07;;;11.00;99.90;;;;;;5074728;28;20784;-57
2022/12/25 00:29:27;;;;;;;5.17;2.90;;;11.00;99.90;;;;;;5075084;28;20692;-57
2022/12/25 00:31:54;;;;;;;5.27;2.90;;;11.00;99.90;;;;;;5074687;28;20229;-57
2022/12/25 00:34:21;;;;;;;5.17;2.93;;;11.10;99.90;;;;;;5074313;28;20209;-56
2022/12/25 00:36:50;;;;;;;5.83;2.70;;;11.00;99.90;;;;;;5074102;28;20198;-56
2022/12/25 00:39:17;;;;;;;5.70;2.67;;;11.00;99.90;;;;;;5074347;28;20296;-56
2022/12/25 00:44:29;;;;;;;4.00;2.57;;;10.80;99.90;;;;;;5074378;28;20300;-57
2022/12/25 00:46:56;;;;;;;4.40;2.23;;;10.70;99.90;;;;;;5074049;28;20233;-57
2022/12/25 00:49:23;;;;;;;6.00;2.43;;;10.60;99.90;;;;;;5074214;28;20216;-57
2022/12/25 00:51:51;;;;;;;5.70;2.40;;;10.60;99.90;;;;;;5074327;28;20265;-57
2022/12/25 00:54:17;;;;;;;4.97;2.33;;;10.50;99.90;;;;;;5073868;28;20209;-57
2022/12/25 00:56:46;;;;;;;8.67;3.20;;;10.50;99.90;;;;;;5074222;28;20224;-57
2022/12/25 00:59:13;;;;;;;4.70;2.50;;;10.50;99.90;;;;;;5074340;28;20208;-57
2022/12/25 01:01:41;;;;;;;5.37;2.23;;;10.40;99.90;;;;;;5073613;28;20704;-57
2022/12/25 01:04:08;;;;;;;5.00;2.17;;;10.40;99.90;;;;;;5073833;28;20611;-57
2022/12/25 01:06:35;;;;;;;3.97;1.97;;;10.30;99.90;;;;;;5073937;28;20221;-57
2022/12/25 01:11:48;;;;;;;6.90;2.50;;;10.30;99.90;;;;;;5074107;28;20266;-57
2022/12/25 01:14:15;;;;;;;4.73;2.60;;;10.30;99.90;;;;;;5074400;28;20200;-57
2022/12/25 01:16:44;;;;;;;6.67;2.80;;;10.30;99.90;;;;;;5073969;28;20197;-57
2022/12/25 01:19:11;;;;;;;4.00;2.30;;;10.30;99.90;;;;;;5073679;28;20213;-57
2022/12/25 01:21:38;;;;;;;4.90;3.13;;;10.30;99.90;;;;;;5073534;28;20444;-61
2022/12/25 01:24:05;;;;;;;4.40;2.70;;;10.40;99.90;;;;;;5073907;28;20232;-56
2022/12/25 01:26:33;;;;;;;5.43;2.67;;;10.50;99.90;;;;;;5073409;28;20232;-56
2022/12/25 01:29:01;;;;;;;4.50;2.70;;;10.60;99.90;;;;;;5073202;28;20205;-56
2022/12/25 01:31:28;;;;;;;4.47;2.40;;;10.80;99.90;;;;;;5073857;28;20239;-55
2022/12/25 01:33:55;;;;;;;4.90;2.40;;;10.90;99.90;;;;;;5073408;28;20633;-55
2022/12/25 01:36:24;;;;;;;4.53;2.50;;;10.90;99.90;;;;;;5073111;28;20208;-55
2022/12/25 01:38:52;;;;;;;4.20;2.10;;;10.90;99.90;;;;;;5073043;28;20258;-56
2022/12/25 01:41:21;;;;;;;3.23;2.40;;;11.00;99.90;;;;;;5072875;28;20225;-56
2022/12/25 01:44:02;;;;;;;4.27;2.43;;;11.10;99.90;;;;;;5072995;28;20231;-55
2022/12/25 01:46:29;;;;;;;7.53;2.50;;;11.20;99.90;;;;;;5072856;28;20320;-56
2022/12/25 01:48:58;;;;;;;5.40;2.60;;;11.30;99.90;;;;;;5072827;28;20288;-56
2022/12/25 01:51:30;;;;;;;5.20;2.37;;;11.30;99.90;;;;;;5073148;28;20244;-56
2022/12/25 01:53:59;;;;;;;3.33;2.17;;;11.20;99.90;;;;;;5072658;28;20299;-57
2022/12/25 01:56:28;;;;;;;6.20;2.43;;;11.30;99.90;;;;;;5073181;28;20291;-55
2022/12/25 01:58:57;;;;;;;3.80;2.40;;;11.30;99.90;;;;;;5072774;28;20589;-56
2022/12/25 02:01:25;;;;;;;4.00;1.80;;;11.40;99.90;;;;;;5072771;28;20308;-60
2022/12/25 02:03:59;;;;;;;4.83;1.80;;;11.50;99.90;;;;;;5073624;28;20584;-57
2022/12/25 02:06:29;;;;;;;3.23;1.93;;;11.50;99.90;;;;;;5073863;28;20713;-57
2022/12/25 02:08:56;;;;;;;3.37;1.60;;;11.50;99.90;;;;;;5072570;28;20583;-57
2022/12/25 02:14:07;;;;;;;3.17;1.37;;;11.60;99.90;;;;;;5072210;28;20238;-57
2022/12/25 02:16:40;;;;;;;3.03;1.50;;;11.70;99.90;;;;;;5071799;28;20660;-57
2022/12/25 02:19:21;;;;;;;4.90;1.53;;;11.70;99.90;;;;;;5071821;28;20212;-57
2022/12/25 02:22:04;;;;;;;2.73;1.17;;;11.70;99.90;;;;;;5070758;28;20713;-57
2022/12/25 02:24:52;;;;;;;4.30;1.60;;;11.80;99.90;;;;;;5071699;28;20262;-57
2022/12/25 02:27:30;;;;;;;2.43;1.40;;;11.80;99.90;;;;;;5071747;28;20602;-57
2022/12/25 02:30:02;;;;;;;2.23;1.03;;;11.80;99.90;;;;;;5071844;28;20220;-57
2022/12/25 02:32:33;;;;;;;2.20;1.20;;;11.90;99.90;;;;;;5071675;28;20204;-57
2022/12/25 02:35:04;;;;;;;2.07;1.10;;;12.00;99.90;;;;;;5072035;28;20212;-57
2022/12/25 02:37:38;;;;;;;1.80;1.10;;;12.00;99.90;;;;;;5071931;28;20227;-63
2022/12/25 02:40:10;;;;;;;3.60;1.27;;;12.00;99.90;;;;;;5072054;28;20201;-57
2022/12/25 03:08:08;;;;;;;3.00;1.20;;;11.80;99.90;;;;;;5071801;28;20231;-57
2022/12/25 03:13:26;;;;;;;1.60;1.10;;;11.80;99.90;;;;;;5071831;28;20208;-57
2022/12/25 03:18:38;;;;;;;2.93;1.07;;;11.90;99.90;;;;;;5072053;28;20738;-57
2022/12/25 03:26:55;;;;;;;2.23;1.10;;;12.10;99.90;;;;;;5071840;28;20212;-56
2022/12/25 03:32:16;;;;;;;3.83;1.30;;;12.00;99.90;;;;;;5071565;28;20599;-57
2022/12/25 04:36:11;;;;;;;3.07;1.50;;;10.60;99.90;;;;;;5074566;28;20259;-56
2022/12/25 04:38:39;;;;;;;1.93;1.47;;;10.70;99.90;;;;;;5074085;28;20307;-56
2022/12/25 04:41:08;;;;;;;2.80;1.40;;;10.50;99.90;;;;;;5074105;28;20623;-56
2022/12/25 04:43:35;;;;;;;2.43;1.70;;;10.40;99.90;;;;;;5073986;28;20251;-56
2022/12/25 04:46:03;;;;;;;3.23;1.80;;;10.20;99.90;;;;;;5073468;28;20219;-56
2022/12/25 04:48:32;;;;;;;4.53;2.00;;;10.10;99.90;;;;;;5074508;28;20302;-55
2022/12/25 04:51:13;;;;;;;2.47;1.57;;;9.90;99.90;;;;;;5074048;28;20220;-56
2022/12/25 04:53:40;;;;;;;3.93;1.70;;;10.00;99.90;;;;;;5074389;28;20645;-56
2022/12/25 04:56:09;;;;;;;5.10;1.87;;;10.00;99.90;;;;;;5074129;28;20581;-56
2022/12/25 04:58:36;;;;;;;2.00;1.60;;;9.90;99.90;;;;;;5074007;28;20201;-56
2022/12/25 05:01:03;;;;;;;2.57;1.77;;;9.80;99.90;;;;;;5073923;28;20263;-56
2022/12/25 05:03:31;;;;;;;3.77;1.77;;;9.80;99.90;;;;;;5073668;28;20212;-56
2022/12/25 05:05:59;;;;;;;2.30;1.57;;;9.80;99.90;;;;;;5074028;28;20295;-56
2022/12/25 05:08:26;;;;;;;5.10;1.80;;;9.70;99.90;;;;;;5073969;28;20286;-56
2022/12/25 05:10:53;;;;;;;2.40;1.80;;;9.70;99.90;;;;;;5073743;28;20228;-56
2022/12/25 05:13:21;;;;;;;3.10;1.77;;;9.70;99.90;;;;;;5073461;28;20284;-56
2022/12/25 05:15:48;;;;;;;4.93;1.40;;;9.80;99.90;;;;;;5073629;28;20213;-56
2022/12/25 05:18:15;;;;;;;3.60;1.50;;;9.70;99.90;;;;;;5073840;28;20274;-56
2022/12/25 05:20:42;;;;;;;2.57;1.60;;;9.70;99.90;;;;;;5073727;28;20311;-57
2022/12/25 05:23:10;;;;;;;3.03;1.43;;;9.70;99.90;;;;;;5073419;28;20621;-56
2022/12/25 05:25:39;;;;;;;2.27;1.53;;;9.70;99.90;;;;;;5073255;28;20197;-55
2022/12/25 05:28:06;;;;;;;2.83;1.37;;;9.80;99.90;;;;;;5073177;28;20221;-56
2022/12/25 05:30:35;;;;;;;3.17;1.30;;;9.80;99.90;;;;;;5073260;28;20240;-56
2022/12/25 05:33:02;;;;;;;3.93;1.70;;;9.80;99.90;;;;;;5073165;28;20205;-57
2022/12/25 05:35:29;;;;;;;2.40;1.20;;;9.80;99.90;;;;;;5073618;28;20216;-56
2022/12/25 05:37:56;;;;;;;3.23;1.20;;;9.80;99.90;;;;;;5073333;28;20233;-56
2022/12/25 05:40:23;;;;;;;2.87;1.23;;;9.80;99.90;;;;;;5073188;28;20229;-56
2022/12/25 05:42:50;;;;;;;2.33;1.20;;;9.90;99.90;;;;;;5072808;28;20205;-56
2022/12/25 05:45:17;;;;;;;2.97;1.27;;;10.00;99.90;;;;;;5072869;28;20276;-56
2022/12/25 05:47:46;;;;;;;4.00;1.60;;;10.10;99.90;;;;;;5072963;28;20221;-57
2022/12/25 05:50:13;;;;;;;1.90;1.30;;;10.10;99.90;;;;;;5072707;28;20290;-56
2022/12/25 05:52:39;;;;;;;2.07;1.40;;;10.20;99.90;;;;;;5072581;28;20665;-56
2022/12/25 05:55:07;;;;;;;1.50;1.20;;;10.30;99.90;;;;;;5072886;28;20661;-56
2022/12/25 05:57:34;;;;;;;2.80;1.30;;;10.30;99.90;;;;;;5072794;28;20219;-56
2022/12/25 06:00:01;;;;;;;2.33;1.40;;;10.30;99.90;;;;;;5072545;28;20302;-57
2022/12/25 06:02:27;;;;;;;1.37;1.07;;;10.40;99.90;;;;;;5073031;28;20303;-55
2022/12/25 06:04:56;;;;;;;2.23;1.50;;;10.40;99.90;;;;;;5072803;28;20201;-56
2022/12/25 06:07:22;;;;;;;1.77;1.20;;;10.50;99.90;;;;;;5072905;28;20260;-56
2022/12/25 06:09:49;;;;;;;2.23;1.27;;;10.60;99.90;;;;;;5072839;28;20201;-56
2022/12/25 06:12:16;;;;;;;2.97;1.10;;;10.60;99.90;;;;;;5072298;28;20716;-56
2022/12/25 06:14:43;;;;;;;3.87;1.30;;;10.60;99.90;;;;;;5072623;28;20215;-57
2022/12/25 06:17:10;;;;;;;1.50;1.07;;;10.70;99.90;;;;;;5072476;28;20550;-56
2022/12/25 06:19:37;;;;;;;1.57;1.10;;;10.70;99.90;;;;;;5073051;28;20212;-56
2022/12/25 06:22:05;;;;;;;3.63;1.10;;;10.80;99.90;;;;;;5073482;28;20252;-57
2022/12/25 06:24:32;;;;;;;1.23;1.10;;;10.60;99.90;;;;;;5072549;28;20228;-57
2022/12/25 06:26:59;;;;;;;2.13;1.17;;;10.50;99.90;;;;;;5073203;28;20224;-58
2022/12/25 06:29:26;;;;;;;1.87;1.27;;;10.50;99.90;;;;;;5073090;28;20212;-58
2022/12/25 06:31:55;;;;;;;1.40;1.30;;;10.50;99.90;;;;;;5072739;28;20243;-57
2022/12/25 06:34:23;;;;;;;3.23;1.20;;;10.50;99.90;;;;;;5072939;28;20654;-57
2022/12/25 06:36:50;;;;;;;1.60;0.93;;;10.50;99.90;;;;;;5073303;28;20201;-58
2022/12/25 06:39:20;;;;;;;1.93;1.17;;;10.50;99.90;;;;;;5072680;28;20215;-57
2022/12/25 06:41:47;;;;;;;1.30;1.00;;;10.50;99.90;;;;;;5073393;28;20697;-57
2022/12/25 06:44:14;;;;;;;1.40;1.03;;;10.50;99.90;;;;;;5073417;28;20240;-58
2022/12/25 06:46:41;;;;;;;2.37;0.87;;;10.50;99.90;;;;;;5073319;28;20262;-57
2022/12/25 06:49:09;;;;;;;1.10;1.00;;;10.50;99.90;;;;;;5073219;28;20740;-58
2022/12/25 06:51:36;;;;;;;1.30;0.97;;;10.60;99.90;;;;;;5073071;28;20579;-58
2022/12/25 06:54:04;;;;;;;3.13;1.43;;;10.50;99.90;;;;;;5073138;28;20557;-57
2022/12/25 06:56:33;;;;;;;3.47;1.10;;;10.50;99.90;;;;;;5072250;28;20231;-58
2022/12/25 06:59:02;;;;;;;4.33;1.30;;;10.50;99.90;;;;;;5072622;28;20261;-58
2022/12/25 07:01:31;;;;;;;1.30;1.10;;;10.60;99.90;;;;;;5072449;28;20636;-58
2022/12/25 07:04:01;;;;;;;3.60;1.30;;;10.60;99.90;;;;;;5072271;28;20676;-58
2022/12/25 07:06:28;;;;;;;3.17;1.20;;;10.60;99.90;;;;;;5072053;28;20205;-57
2022/12/25 07:08:55;;;;;;;2.10;1.27;;;10.60;99.90;;;;;;5075017;28;20247;-57
2022/12/25 07:11:23;;;;;;;2.33;1.37;;;10.70;99.90;;;;;;5076078;28;20231;-57
2022/12/25 07:13:51;;;;;;;2.07;1.37;;;10.60;99.90;;;;;;5075947;28;20211;-57
2022/12/25 07:16:18;;;;;;;1.97;1.50;;;10.70;99.90;;;;;;5076214;28;20209;-57
2022/12/25 07:18:44;;;;;;;1.63;1.33;;;10.80;99.90;;;;;;5076383;28;20299;-57
2022/12/25 07:21:13;;;;;;;1.77;1.30;;;10.80;99.90;;;;;;5075948;28;20312;-57
2022/12/25 07:23:40;;;;;;;2.97;1.27;;;10.80;99.90;;;;;;5075833;28;20201;-57
2022/12/25 07:26:09;;;;;;;9.13;1.73;;;10.70;99.90;;;;;;5075498;28;20209;-57
2022/12/25 07:28:36;;;;;;;3.60;1.57;;;10.60;99.90;;;;;;5075769;28;20224;-57
2022/12/25 07:31:06;;;;;;;1.73;1.07;;;10.50;99.90;;;;;;5075802;28;20276;-58
2022/12/25 07:33:33;;;;;;;2.47;1.30;;;10.50;99.90;;;;;;5075180;28;20205;-58
2022/12/25 07:36:00;;;;;;;2.33;1.40;;;10.60;99.90;;;;;;5075727;28;20213;-57
2022/12/25 07:38:27;;;;;;;1.70;1.17;;;10.80;99.90;;;;;;5075183;28;20219;-57
2022/12/25 07:40:54;;;;;;;2.80;1.43;;;10.90;99.90;;;;;;5075323;28;20220;-57
2022/12/25 07:43:21;;;;;;;2.40;1.40;;;10.90;99.90;;;;;;5075030;28;20216;-58
2022/12/25 07:45:47;;;;;;;1.77;1.30;;;10.90;99.90;;;;;;5074999;28;20209;-57
2022/12/25 07:48:16;;;;;;;1.80;1.43;;;10.90;99.90;;;;;;5074849;28;20809;-57
2022/12/25 07:50:42;;;;;;;1.70;1.20;;;10.90;99.90;;;;;;5075106;28;20606;-57
2022/12/25 07:53:09;;;;;;;2.30;1.90;;;10.90;99.90;;;;;;5074943;28;20312;-57
2022/12/25 07:55:36;;;;;;;3.70;2.20;;;10.90;99.90;;;;;;5074972;28;20216;-58
2022/12/25 07:58:03;;;;;;;3.20;1.83;;;10.80;99.90;;;;;;5074864;28;20205;-57
2022/12/25 08:00:31;;;;;;;3.83;2.50;;;10.80;99.90;;;;;;5074711;28;20220;-57
2022/12/25 08:02:58;;;;;;;2.67;2.23;;;10.70;99.90;;;;;;5074709;28;20303;-57
2022/12/25 08:05:26;;;;;;;2.20;1.70;;;10.60;99.90;;;;;;5074983;28;20211;-57
2022/12/25 08:07:54;;;;;;;3.07;1.80;;;10.50;99.90;;;;;;5074728;28;20224;-57
2022/12/25 08:10:21;;;;;;;2.73;1.70;;;10.50;99.90;;;;;;5074638;28;20672;-57
2022/12/25 08:12:47;;;;;;;3.97;1.77;;;10.50;99.90;;;;;;5074367;28;20669;-57
2022/12/25 08:15:15;;;;;;;2.70;1.60;;;10.50;99.90;;;;;;5074362;28;20677;-57
2022/12/25 08:17:41;;;;;;;3.57;2.43;;;10.70;99.90;;;;;;5074570;28;20205;-57
2022/12/25 08:20:09;;;;;;;3.40;1.73;;;10.80;99.90;;;;;;5073403;28;20582;-57
2022/12/25 08:22:37;;;;;;;1.97;1.30;;;11.10;99.90;;;;;;5074473;28;20661;-57
2022/12/25 08:25:04;;;;;;;2.00;1.63;;;11.20;99.90;;;;;;5074535;28;20547;-57
2022/12/25 08:27:31;;;;;;;1.57;1.47;;;11.20;99.90;;;;;;5074225;28;20239;-57
2022/12/25 08:29:58;;;;;;;1.90;1.60;;;11.20;99.90;;;;;;5074215;28;20469;-57
2022/12/25 08:32:25;;;;;;;1.70;1.47;;;11.30;99.90;;;;;;5074521;28;20703;-57
2022/12/25 08:34:51;;;;;;;5.47;1.50;;;11.40;99.90;;;;;;5074036;28;20617;-57
2022/12/25 08:37:18;;;;;;;2.13;1.30;;;11.50;99.90;;;;;;5074238;28;20607;-57
2022/12/25 08:39:46;;;;;;;1.90;1.50;;;11.60;99.90;;;;;;5074401;28;20571;-58
2022/12/25 08:42:14;;;;;;;2.90;1.50;;;11.80;99.90;;;;;;5074739;28;20232;-62
2022/12/25 08:44:40;;;;;;;2.80;2.43;;;11.80;99.90;;;;;;5074916;28;20215;-57
2022/12/25 08:47:07;;;;;;;2.47;1.70;;;11.90;99.90;;;;;;5074245;28;20673;-58
2022/12/25 08:49:34;;;;;;;1.87;1.70;;;12.00;99.90;;;;;;5074282;28;20599;-58
2022/12/25 08:52:01;;;;;;;3.37;1.50;;;12.20;99.90;;;;;;5074207;28;20235;-58
2022/12/25 08:54:30;;;;;;;1.60;1.40;;;12.30;99.90;;;;;;5073877;28;20201;-59
2022/12/25 08:56:59;;;;;;;1.23;1.03;;;12.40;99.90;;;;;;5074023;28;20561;-58
2022/12/25 08:59:26;;;;;;;3.87;1.47;;;12.50;99.90;;;;;;5074143;28;20197;-58
2022/12/25 09:01:52;;;;;;;2.90;1.47;;;12.40;99.90;;;;;;5074088;28;20259;-58
2022/12/25 09:04:19;;;;;;;2.33;1.70;;;12.40;99.90;;;;;;5073739;28;20209;-59
2022/12/25 09:06:46;;;;;;;1.93;1.43;;;12.40;99.90;;;;;;5074034;28;20205;-58
2022/12/25 09:09:13;;;;;;;2.07;1.50;;;12.30;99.90;;;;;;5073923;28;20231;-58
2022/12/25 09:11:40;;;;;;;5.07;2.00;;;12.10;99.90;;;;;;5074086;28;20224;-59
2022/12/25 09:14:08;;;;;;;2.13;1.80;;;12.00;99.90;;;;;;5074146;28;20672;-58
2022/12/25 09:16:35;;;;;;;2.10;1.60;;;11.90;99.90;;;;;;5074275;28;20205;-59
2022/12/25 09:19:02;;;;;;;2.27;1.70;;;11.80;99.90;;;;;;5074130;28;20200;-59
2022/12/25 09:21:29;;;;;;;1.90;1.63;;;11.70;99.90;;;;;;5074004;28;20221;-58
2022/12/25 09:23:56;;;;;;;1.90;1.70;;;11.70;99.90;;;;;;5073752;28;20216;-58
2022/12/25 09:26:23;;;;;;;1.73;1.40;;;11.80;99.90;;;;;;5073970;28;20215;-59
2022/12/25 09:28:49;;;;;;;4.97;1.50;;;11.90;99.90;;;;;;5073668;28;20308;-59
2022/12/25 09:31:18;;;;;;;2.40;1.57;;;11.80;99.90;;;;;;5073100;28;20244;-59
2022/12/25 09:33:45;;;;;;;2.23;1.70;;;11.80;99.90;;;;;;5073160;28;20215;-58
2022/12/25 09:36:12;;;;;;;1.90;1.70;;;11.70;99.90;;;;;;5073744;28;20209;-58
2022/12/25 09:38:39;;;;;;;4.10;1.60;;;11.80;99.90;;;;;;5073765;28;20712;-59
2022/12/25 09:41:13;;;;;;;2.20;1.73;;;11.90;99.90;;;;;;5073454;28;20224;-59
2022/12/25 09:43:44;;;;;;;1.67;1.50;;;12.00;99.90;;;;;;5073729;28;20236;-59
2022/12/25 09:46:15;;;;;;;2.93;1.60;;;12.10;99.90;;;;;;5073588;28;20588;-59
2022/12/25 09:48:48;;;;;;;3.73;1.60;;;12.30;99.90;;;;;;5073434;28;20278;-59
2022/12/25 09:51:17;;;;;;;1.87;1.57;;;12.50;99.90;;;;;;5073401;28;20221;-59
2022/12/25 09:53:47;;;;;;;2.27;1.50;;;12.50;99.90;;;;;;5074864;28;20204;-59
2022/12/25 09:56:18;;;;;;;1.83;1.50;;;12.60;99.90;;;;;;5074750;28;20266;-58
2022/12/25 09:58:45;;;;;;;3.97;1.60;;;12.70;99.90;;;;;;5074468;28;20212;-59
2022/12/25 10:01:19;;;;;;;3.57;2.13;;;12.80;99.90;;;;;;5074464;28;20254;-59
2022/12/25 10:04:17;;;;;;;3.00;2.00;;;12.80;99.90;;;;;;5074488;28;20215;-59
2022/12/25 10:06:55;;;;;;;2.50;2.20;;;13.00;99.90;;;;;;5074915;28;20209;-59
2022/12/25 10:09:43;;;;;;;2.87;1.97;;;13.30;99.90;;;;;;5075120;28;20220;-59
2022/12/25 10:12:22;;;;;;;2.53;1.93;;;13.50;99.90;;;;;;5075425;28;20225;-59
2022/12/25 10:15:03;;;;;;;2.00;1.80;;;13.50;99.90;;;;;;5074902;28;20219;-59
2022/12/25 10:17:43;;;;;;;2.30;1.70;;;13.30;99.90;;;;;;5074830;28;20205;-58
2022/12/25 10:20:19;;;;;;;3.07;2.00;;;12.80;99.90;;;;;;5073170;28;20212;-58
2022/12/25 10:22:52;;;;;;;3.03;2.10;;;12.70;99.90;;;;;;5073447;28;20212;-58
2022/12/25 10:25:22;;;;;;;2.97;2.27;;;12.70;99.90;;;;;;5073330;28;20205;-58
2022/12/25 10:27:52;;;;;;;2.50;2.30;;;13.00;99.90;;;;;;5073807;28;20212;-58
2022/12/25 10:30:22;;;;;;;3.33;2.23;;;13.30;99.90;;;;;;5073489;28;20463;-58
2022/12/25 10:32:50;;;;;;;2.53;2.00;;;13.40;99.90;;;;;;5073211;28;20292;-58
2022/12/25 10:35:21;;;;;;;7.90;4.50;;;13.60;99.90;;;;;;5073371;28;20673;-59
2022/12/25 10:37:55;;;;;;;3.73;2.83;;;13.80;99.90;;;;;;5073585;28;20208;-58
2022/12/25 10:40:32;;;;;;;2.40;2.00;;;14.00;99.90;;;;;;5074012;28;20315;-58
2022/12/25 10:43:07;;;;;;;3.60;2.20;;;14.10;99.90;;;;;;5072467;28;20579;-59
2022/12/25 10:45:43;;;;;;;7.17;5.13;;;13.90;99.90;;;;;;5073451;28;20208;-59
2022/12/25 10:48:18;;;;;;;4.03;2.00;;;14.00;99.90;;;;;;5073154;28;20205;-58
2022/12/25 10:50:47;;;;;;;2.70;2.00;;;13.90;99.90;;;;;;5073736;28;20224;-58
2022/12/25 10:53:20;;;;;;;5.00;1.93;;;13.70;99.90;;;;;;5073209;28;20691;-59
2022/12/25 10:55:57;;;;;;;2.97;1.90;;;13.80;99.90;;;;;;5073564;28;20644;-58
2022/12/25 10:58:24;;;;;;;2.23;1.60;;;14.10;99.90;;;;;;5073887;28;20205;-58
2022/12/25 11:00:54;;;;;;;2.23;1.60;;;14.40;99.90;;;;;;5073952;28;20619;-59
2022/12/25 11:03:23;;;;;;;1.73;1.60;;;14.70;99.90;;;;;;5074099;28;20208;-59
2022/12/25 11:05:53;;;;;;;3.33;1.70;;;15.00;99.90;;;;;;5074418;28;20209;-60
2022/12/25 11:08:22;;;;;;;3.10;1.73;;;15.10;99.90;;;;;;5074379;28;20212;-58
2022/12/25 11:10:54;;;;;;;2.50;1.90;;;15.20;99.90;;;;;;5074349;28;20258;-59
2022/12/25 11:13:24;;;;;;;2.67;1.53;;;15.30;99.90;;;;;;5074687;28;20213;-59
2022/12/25 11:16:02;;;;;;;1.73;1.60;;;15.40;99.90;;;;;;5074367;28;20266;-59
2022/12/25 11:18:33;;;;;;;4.28;2.70;;;15.60;99.90;;;;;;5073710;28;20481;-58
2022/12/25 11:21:04;;;;;;;3.07;2.20;;;15.60;99.90;;;;;;5092598;28;20293;-63
2022/12/25 11:23:32;;;;;;;2.72;2.00;;;15.80;99.90;;;;;;5093369;28;20744;-58
2022/12/25 11:26:01;;;;;;;2.13;1.70;;;15.90;99.90;;;;;;5092218;28;20200;-58
2022/12/25 11:28:30;;;;;;;2.13;1.43;;;16.00;99.90;;;;;;5091615;28;20209;-59
2022/12/25 11:31:01;;;;;;;1.60;1.30;;;16.00;99.90;;;;;;5092725;28;20228;-59
2022/12/25 11:33:32;;;;;;;3.43;1.33;;;15.90;99.90;;;;;;5093057;28;20735;-58
2022/12/25 11:36:06;;;;;;;3.37;2.20;;;15.90;99.90;;;;;;5093635;28;20208;-59
2022/12/25 11:38:32;;;;;;;2.63;1.33;;;16.00;99.90;;;;;;5093328;28;20216;-59
2022/12/25 11:41:03;;;;;;;2.00;1.40;;;16.00;99.90;;;;;;5092906;28;20715;-59
2022/12/25 11:43:36;;;;;;;1.95;1.45;;;16.10;99.90;;;;;;5091973;28;20200;-60
2022/12/25 11:46:11;;;;;;;3.15;1.50;;;16.20;99.90;;;;;;5092086;28;20204;-60
2022/12/25 11:48:43;;;;;;;3.83;1.73;;;16.40;99.90;;;;;;5091664;28;20200;-59
2022/12/25 11:51:15;;;;;;;3.10;2.33;;;16.50;99.90;;;;;;5091638;28;20232;-61
2022/12/25 11:53:48;;;;;;;6.03;4.80;;;16.60;99.90;;;;;;5092159;28;20227;-61
2022/12/25 11:56:17;;;;;;;1.83;1.58;;;16.60;99.90;;;;;;5095699;28;20534;-60
2022/12/25 11:58:48;;;;;;;2.03;1.80;;;16.60;99.90;;;;;;5095659;28;20208;-60
2022/12/25 12:01:22;;;;;;;1.77;1.50;;;16.70;99.90;;;;;;5096126;28;20229;-60
2022/12/25 12:03:49;;;;;;;1.45;1.30;;;16.60;99.90;;;;;;5096413;28;20199;-57
2022/12/25 12:06:25;;;;;;;2.07;1.50;;;16.60;99.90;;;;;;5095951;28;20211;-57
2022/12/25 12:09:01;;;;;;;1.85;1.50;;;16.70;99.90;;;;;;5095826;28;20207;-57
2022/12/25 12:11:36;;;;;;;1.88;1.58;;;16.90;99.90;;;;;;5096064;28;20708;-56
2022/12/25 12:14:20;;;;;;;1.83;1.40;;;17.10;99.90;;;;;;5095710;28;20215;-57
2022/12/25 12:16:46;;;;;;;3.30;2.22;;;17.20;99.90;;;;;;5096591;28;20200;-57
2022/12/25 12:19:25;;;;;;;3.05;1.98;;;17.30;99.90;;;;;;5095726;28;20201;-56
2022/12/25 12:21:56;;;;;;;2.03;1.60;;;17.20;99.90;;;;;;5095714;28;20220;-57
2022/12/25 12:24:25;;;;;;;2.50;1.23;;;17.10;99.90;;;;;;5095399;28;20703;-56
2022/12/25 12:27:02;;;;;;;3.42;2.45;;;17.20;99.90;;;;;;5095566;28;20232;-56
2022/12/25 12:29:31;;;;;;;2.88;1.80;;;17.20;99.90;;;;;;5095900;28;20249;-56
2022/12/25 12:32:01;;;;;;;4.28;2.67;;;17.20;99.90;;;;;;5095290;28;20255;-58
2022/12/25 12:34:32;;;;;;;2.83;2.10;;;17.30;99.90;;;;;;5095272;28;20204;-57
2022/12/25 12:37:04;;;;;;;3.67;2.00;;;17.20;99.90;;;;;;5095454;28;20208;-57
2022/12/25 12:39:35;;;;;;;3.83;2.50;;;17.20;99.90;;;;;;5095252;28;20565;-56
2022/12/25 12:42:02;;;;;;;2.22;1.90;;;17.10;99.90;;;;;;5095132;28;20232;-57
2022/12/25 12:44:33;;;;;;;1.80;1.30;;;16.90;99.90;;;;;;5095225;28;20250;-56
2022/12/25 12:47:00;;;;;;;2.08;1.40;;;16.70;99.90;;;;;;5095267;28;20262;-56
2022/12/25 12:49:29;;;;;;;2.05;1.55;;;16.60;99.90;;;;;;5095173;28;20227;-57
2022/12/25 12:52:21;;;;;;;2.15;1.40;;;16.50;99.90;;;;;;5094582;28;20587;-57
2022/12/25 12:54:56;;;;;;;2.25;1.48;;;16.50;99.90;;;;;;5095064;28;20207;-56
2022/12/25 12:57:25;;;;;;;2.10;1.45;;;16.40;99.90;;;;;;5094919;28;20679;-58
2022/12/25 12:59:52;;;;;;;1.50;1.40;;;16.40;99.90;;;;;;5095119;28;20200;-56
2022/12/25 13:03:02;;;;;;;2.40;1.52;;;16.40;99.90;;;;;;5094974;28;20224;-57
2022/12/25 13:05:37;;;;;;;1.98;1.30;;;16.40;99.90;;;;;;5083776;28;20204;-56
2022/12/25 13:08:16;;;;;;;2.00;1.50;;;16.50;99.90;;;;;;5094739;28;20223;-56
2022/12/25 13:10:48;;;;;;;2.25;1.35;;;16.50;99.90;;;;;;5094669;28;20722;-57
2022/12/25 13:13:20;;;;;;;2.50;1.90;;;16.60;99.90;;;;;;5094411;28;20212;-57
2022/12/25 13:15:49;;;;;;;2.90;2.00;;;16.80;99.90;;;;;;5094716;28;20233;-56
2022/12/25 13:18:16;;;;;;;2.30;1.90;;;16.80;99.90;;;;;;5094693;28;20208;-56
2022/12/25 13:20:48;;;;;;;2.05;1.70;;;16.90;99.90;;;;;;5094908;28;20224;-56
2022/12/25 13:23:25;;;;;;;2.17;1.10;;;17.00;99.90;;;;;;5094687;28;20602;-57
2022/12/25 13:25:53;;;;;;;2.20;1.27;;;17.00;99.90;;;;;;5094606;28;20204;-57
2022/12/25 13:28:25;;;;;;;1.98;1.10;;;17.00;99.90;;;;;;5094073;28;20208;-57
2022/12/25 13:30:52;;;;;;;3.85;1.08;;;17.10;99.90;;;;;;5107414;22;20236;-61
2022/12/25 13:33:19;;;;;;;1.08;0.98;;;17.10;99.90;;;;;;5084516;28;20197;-61
2022/12/25 13:35:46;;;;;;;2.67;1.60;;;17.00;99.90;;;;;;5093050;28;20312;-61
2022/12/25 13:38:16;;;;;;;1.90;1.70;;;17.00;99.90;;;;;;5092947;28;20208;-60
2022/12/25 13:42:04;;;;;;;4.43;3.00;;;17.10;99.90;;;;;;5093302;28;20220;-59
2022/12/25 13:43:38;;;;;;;2.30;1.92;;;17.00;99.90;;;;;;5092749;28;20199;-60
2022/12/25 13:46:05;;;;;;;1.58;1.30;;;17.10;99.90;;;;;;5092881;28;20207;-60
2022/12/25 13:48:32;;;;;;;2.88;1.60;;;17.10;99.90;;;;;;5093458;28;20208;-59
2022/12/25 13:51:01;;;;;;;2.60;1.55;;;17.20;99.90;;;;;;5092787;28;20278;-61
2022/12/25 13:53:28;;;;;;;3.10;1.63;;;17.10;99.90;;;;;;5093092;28;20337;-58
2022/12/25 13:55:58;;;;;;;2.95;1.90;;;17.10;99.90;;;;;;5092747;28;20216;-58
2022/12/25 13:58:28;;;;;;;2.28;1.63;;;17.10;99.90;;;;;;5092789;28;20204;-59
2022/12/25 14:00:57;;;;;;;4.10;2.78;;;17.10;99.90;;;;;;5093124;28;20270;-59
2022/12/25 14:03:30;;;;;;;4.38;2.55;;;17.00;99.90;;;;;;5092899;28;20623;-59
2022/12/25 14:05:58;;;;;;;2.90;2.15;;;17.10;99.90;;;;;;5092656;28;20249;-59
2022/12/25 14:08:27;;;;;;;2.75;1.80;;;17.00;99.90;;;;;;5092755;28;20208;-58
2022/12/25 14:10:56;;;;;;;1.80;1.33;;;17.00;99.90;;;;;;5092644;28;20277;-59
2022/12/25 14:13:27;;;;;;;2.38;1.80;;;17.00;99.90;;;;;;5092586;28;20220;-60
2022/12/25 14:15:56;;;;;;;3.35;1.70;;;16.90;99.90;;;;;;5092797;28;20208;-59
2022/12/25 14:18:24;;;;;;;4.05;2.90;;;16.90;99.90;;;;;;5091755;28;20628;-58
2022/12/25 14:21:02;;;;;;;2.45;1.55;;;17.00;99.90;;;;;;5092659;28;20220;-59
2022/12/25 14:23:39;;;;;;;3.70;1.80;;;17.00;99.90;;;;;;5092362;28;20212;-58
2022/12/25 14:26:14;;;;;;;2.97;2.08;;;17.00;99.90;;;;;;5092779;28;20203;-60
2022/12/25 14:28:40;;;;;;;2.55;1.48;;;16.90;99.90;;;;;;5092263;28;20257;-59
2022/12/25 14:31:11;;;;;;;1.88;1.58;;;16.90;99.90;;;;;;5091973;28;20293;-60
2022/12/25 14:33:39;;;;;;;4.78;3.20;;;16.70;99.90;;;;;;5092357;28;20344;-59
2022/12/25 14:36:07;;;;;;;2.47;1.73;;;16.60;99.90;;;;;;5092050;28;20262;-58
2022/12/25 14:38:34;;;;;;;1.50;1.40;;;16.50;99.90;;;;;;5091963;28;20281;-57
2022/12/25 14:41:04;;;;;;;1.30;1.03;;;16.40;99.90;;;;;;5092082;28;20220;-58
2022/12/25 14:43:33;;;;;;;1.23;1.10;;;16.40;99.90;;;;;;5091894;28;20208;-58
2022/12/25 14:46:02;;;;;;;1.52;1.30;;;16.20;99.90;;;;;;5092364;28;20204;-58
2022/12/25 14:48:30;;;;;;;2.83;1.20;;;16.10;99.90;;;;;;5092292;28;20291;-60